sensor_id;sensor_type;location;lat;lon;timestamp;P1;durP1;ratioP1;P2;durP2;ratioP2
56770;SDS011;42641;59.794;17.616;2022-09-13T00:00:57;3.07;;;2.77;;
56770;SDS011;42641;59.794;17.616;2022-09-13T00:03:24;2.53;;;2.33;;
56770;SDS011;42641;59.794;17.616;2022-09-13T00:05:51;4.07;;;2.70;;
56770;SDS011;42641;59.794;17.616;2022-09-13T00:08:17;3.30;;;2.70;;
56770;SDS011;42641;59.794;17.616;2022-09-13T00:10:44;6.80;;;2.90;;
56770;SDS011;42641;59.794;17.616;2022-09-13T00:13:11;6.90;;;3.03;;
56770;SDS011;42641;59.794;17.616;2022-09-13T00:15:42;2.50;;;2.30;;
56770;SDS011;42641;59.794;17.616;2022-09-13T00:18:10;3.17;;;2.87;;
56770;SDS011;42641;59.794;17.616;2022-09-13T00:20:37;5.10;;;2.63;;
56770;SDS011;42641;59.794;17.616;2022-09-13T00:23:03;5.13;;;2.70;;
56770;SDS011;42641;59.794;17.616;2022-09-13T00:25:29;3.67;;;2.53;;
56770;SDS011;42641;59.794;17.616;2022-09-13T00:27:56;3.00;;;2.70;;
56770;SDS011;42641;59.794;17.616;2022-09-13T00:30:22;4.03;;;2.70;;
56770;SDS011;42641;59.794;17.616;2022-09-13T00:32:48;3.70;;;2.83;;
56770;SDS011;42641;59.794;17.616;2022-09-13T00:35:15;3.47;;;2.70;;
56770;SDS011;42641;59.794;17.616;2022-09-13T00:37:41;5.77;;;2.87;;
56770;SDS011;42641;59.794;17.616;2022-09-13T00:40:08;3.00;;;2.73;;
56770;SDS011;42641;59.794;17.616;2022-09-13T00:42:35;5.30;;;2.77;;
56770;SDS011;42641;59.794;17.616;2022-09-13T00:45:13;3.43;;;2.73;;
56770;SDS011;42641;59.794;17.616;2022-09-13T00:47:52;3.27;;;2.53;;
56770;SDS011;42641;59.794;17.616;2022-09-13T00:50:39;3.90;;;2.90;;
56770;SDS011;42641;59.794;17.616;2022-09-13T00:53:10;4.37;;;2.77;;
56770;SDS011;42641;59.794;17.616;2022-09-13T00:55:41;2.87;;;2.43;;
56770;SDS011;42641;59.794;17.616;2022-09-13T00:58:12;2.50;;;2.30;;
56770;SDS011;42641;59.794;17.616;2022-09-13T01:00:44;6.23;;;2.50;;
56770;SDS011;42641;59.794;17.616;2022-09-13T01:03:12;5.40;;;2.80;;
56770;SDS011;42641;59.794;17.616;2022-09-13T01:05:51;3.63;;;2.60;;
56770;SDS011;42641;59.794;17.616;2022-09-13T01:08:25;3.47;;;2.50;;
56770;SDS011;42641;59.794;17.616;2022-09-13T01:10:53;2.93;;;2.60;;
56770;SDS011;42641;59.794;17.616;2022-09-13T01:13:25;4.80;;;2.70;;
56770;SDS011;42641;59.794;17.616;2022-09-13T01:15:58;4.30;;;2.80;;
56770;SDS011;42641;59.794;17.616;2022-09-13T01:18:25;4.43;;;2.67;;
56770;SDS011;42641;59.794;17.616;2022-09-13T01:26:14;7.40;;;3.07;;
56770;SDS011;42641;59.794;17.616;2022-09-13T01:32:03;7.43;;;2.60;;
56770;SDS011;42641;59.794;17.616;2022-09-13T01:34:57;6.97;;;2.77;;
56770;SDS011;42641;59.794;17.616;2022-09-13T01:37:32;4.17;;;2.70;;
56770;SDS011;42641;59.794;17.616;2022-09-13T01:42:54;5.80;;;2.63;;
56770;SDS011;42641;59.794;17.616;2022-09-13T01:45:31;3.13;;;2.60;;
56770;SDS011;42641;59.794;17.616;2022-09-13T01:48:12;3.73;;;2.60;;
56770;SDS011;42641;59.794;17.616;2022-09-13T01:51:04;5.27;;;2.80;;
56770;SDS011;42641;59.794;17.616;2022-09-13T01:56:22;5.23;;;2.80;;
56770;SDS011;42641;59.794;17.616;2022-09-13T01:58:55;5.03;;;2.63;;
56770;SDS011;42641;59.794;17.616;2022-09-13T02:03:59;6.47;;;3.60;;
56770;SDS011;42641;59.794;17.616;2022-09-13T02:06:37;5.30;;;2.50;;
56770;SDS011;42641;59.794;17.616;2022-09-13T02:09:14;2.87;;;2.60;;
56770;SDS011;42641;59.794;17.616;2022-09-13T02:11:45;2.83;;;2.53;;
56770;SDS011;42641;59.794;17.616;2022-09-13T02:14:16;3.53;;;2.90;;
56770;SDS011;42641;59.794;17.616;2022-09-13T02:16:52;4.37;;;2.60;;
56770;SDS011;42641;59.794;17.616;2022-09-13T02:19:28;4.27;;;2.60;;
56770;SDS011;42641;59.794;17.616;2022-09-13T02:22:28;3.63;;;2.70;;
56770;SDS011;42641;59.794;17.616;2022-09-13T02:24:59;4.73;;;2.50;;
56770;SDS011;42641;59.794;17.616;2022-09-13T02:27:32;4.87;;;2.60;;
56770;SDS011;42641;59.794;17.616;2022-09-13T02:30:09;3.80;;;2.20;;
56770;SDS011;42641;59.794;17.616;2022-09-13T02:32:41;5.20;;;3.00;;
56770;SDS011;42641;59.794;17.616;2022-09-13T02:35:15;2.63;;;2.43;;
56770;SDS011;42641;59.794;17.616;2022-09-13T02:38:01;3.97;;;2.40;;
56770;SDS011;42641;59.794;17.616;2022-09-13T02:40:39;4.23;;;2.73;;
56770;SDS011;42641;59.794;17.616;2022-09-13T02:43:21;4.47;;;2.50;;
56770;SDS011;42641;59.794;17.616;2022-09-13T02:46:18;3.47;;;2.90;;
56770;SDS011;42641;59.794;17.616;2022-09-13T02:48:51;4.00;;;2.70;;
56770;SDS011;42641;59.794;17.616;2022-09-13T02:54:17;2.47;;;2.13;;
56770;SDS011;42641;59.794;17.616;2022-09-13T02:59:26;3.43;;;2.23;;
56770;SDS011;42641;59.794;17.616;2022-09-13T03:04:22;4.57;;;2.80;;
56770;SDS011;42641;59.794;17.616;2022-09-13T03:06:49;3.77;;;2.70;;
56770;SDS011;42641;59.794;17.616;2022-09-13T03:09:16;3.70;;;2.50;;
56770;SDS011;42641;59.794;17.616;2022-09-13T03:11:55;5.80;;;2.43;;
56770;SDS011;42641;59.794;17.616;2022-09-13T03:30:04;3.67;;;2.33;;
56770;SDS011;42641;59.794;17.616;2022-09-13T03:32:35;5.17;;;2.43;;
56770;SDS011;42641;59.794;17.616;2022-09-13T03:43:27;3.03;;;2.30;;
56770;SDS011;42641;59.794;17.616;2022-09-13T03:46:17;3.40;;;2.57;;
56770;SDS011;42641;59.794;17.616;2022-09-13T03:48:49;4.07;;;2.30;;
56770;SDS011;42641;59.794;17.616;2022-09-13T03:51:17;4.50;;;2.27;;
56770;SDS011;42641;59.794;17.616;2022-09-13T03:53:47;4.40;;;2.90;;
56770;SDS011;42641;59.794;17.616;2022-09-13T03:56:23;3.50;;;2.90;;
56770;SDS011;42641;59.794;17.616;2022-09-13T03:58:49;2.63;;;2.33;;
56770;SDS011;42641;59.794;17.616;2022-09-13T04:01:19;4.63;;;2.60;;
56770;SDS011;42641;59.794;17.616;2022-09-13T04:03:48;4.07;;;2.63;;
56770;SDS011;42641;59.794;17.616;2022-09-13T04:06:15;5.03;;;2.90;;
56770;SDS011;42641;59.794;17.616;2022-09-13T04:08:41;2.37;;;2.03;;
56770;SDS011;42641;59.794;17.616;2022-09-13T04:11:09;2.87;;;2.50;;
56770;SDS011;42641;59.794;17.616;2022-09-13T04:13:36;5.33;;;2.67;;
56770;SDS011;42641;59.794;17.616;2022-09-13T04:16:03;3.53;;;2.70;;
56770;SDS011;42641;59.794;17.616;2022-09-13T04:18:31;3.00;;;2.43;;
56770;SDS011;42641;59.794;17.616;2022-09-13T04:20:59;4.50;;;2.50;;
56770;SDS011;42641;59.794;17.616;2022-09-13T04:23:27;3.87;;;2.40;;
56770;SDS011;42641;59.794;17.616;2022-09-13T04:25:59;3.17;;;2.37;;
56770;SDS011;42641;59.794;17.616;2022-09-13T04:28:26;4.33;;;2.60;;
56770;SDS011;42641;59.794;17.616;2022-09-13T04:30:53;2.67;;;2.40;;
56770;SDS011;42641;59.794;17.616;2022-09-13T04:33:19;4.13;;;2.67;;
56770;SDS011;42641;59.794;17.616;2022-09-13T04:35:45;3.27;;;2.50;;
56770;SDS011;42641;59.794;17.616;2022-09-13T04:38:11;2.70;;;2.33;;
56770;SDS011;42641;59.794;17.616;2022-09-13T04:40:38;6.53;;;2.70;;
56770;SDS011;42641;59.794;17.616;2022-09-13T04:43:05;2.87;;;2.63;;
56770;SDS011;42641;59.794;17.616;2022-09-13T04:45:31;3.77;;;2.57;;
56770;SDS011;42641;59.794;17.616;2022-09-13T04:47:58;3.87;;;2.60;;
56770;SDS011;42641;59.794;17.616;2022-09-13T04:50:25;4.67;;;2.80;;
56770;SDS011;42641;59.794;17.616;2022-09-13T04:52:53;2.80;;;2.47;;
56770;SDS011;42641;59.794;17.616;2022-09-13T04:55:20;5.03;;;2.77;;
56770;SDS011;42641;59.794;17.616;2022-09-13T04:57:46;3.30;;;2.40;;
56770;SDS011;42641;59.794;17.616;2022-09-13T05:00:12;3.47;;;2.53;;
56770;SDS011;42641;59.794;17.616;2022-09-13T05:02:39;6.03;;;2.73;;
56770;SDS011;42641;59.794;17.616;2022-09-13T05:05:05;6.17;;;2.70;;
56770;SDS011;42641;59.794;17.616;2022-09-13T05:07:33;2.97;;;2.17;;
56770;SDS011;42641;59.794;17.616;2022-09-13T05:10:00;5.07;;;2.60;;
56770;SDS011;42641;59.794;17.616;2022-09-13T05:12:26;5.47;;;2.90;;
56770;SDS011;42641;59.794;17.616;2022-09-13T05:14:52;5.17;;;2.83;;
56770;SDS011;42641;59.794;17.616;2022-09-13T05:17:18;5.43;;;3.13;;
56770;SDS011;42641;59.794;17.616;2022-09-13T05:19:46;4.10;;;2.57;;
56770;SDS011;42641;59.794;17.616;2022-09-13T05:22:14;5.57;;;2.70;;
56770;SDS011;42641;59.794;17.616;2022-09-13T05:24:40;4.97;;;2.70;;
56770;SDS011;42641;59.794;17.616;2022-09-13T05:27:08;4.93;;;2.87;;
56770;SDS011;42641;59.794;17.616;2022-09-13T05:29:35;4.43;;;2.70;;
56770;SDS011;42641;59.794;17.616;2022-09-13T05:32:02;2.83;;;2.30;;
56770;SDS011;42641;59.794;17.616;2022-09-13T05:34:29;4.43;;;2.97;;
56770;SDS011;42641;59.794;17.616;2022-09-13T05:36:55;2.50;;;2.30;;
56770;SDS011;42641;59.794;17.616;2022-09-13T05:39:21;4.00;;;2.83;;
56770;SDS011;42641;59.794;17.616;2022-09-13T05:41:47;3.80;;;2.53;;
56770;SDS011;42641;59.794;17.616;2022-09-13T05:44:14;3.83;;;2.90;;
56770;SDS011;42641;59.794;17.616;2022-09-13T05:46:41;2.63;;;2.43;;
56770;SDS011;42641;59.794;17.616;2022-09-13T05:49:11;3.93;;;2.33;;
56770;SDS011;42641;59.794;17.616;2022-09-13T05:51:38;4.83;;;2.53;;
56770;SDS011;42641;59.794;17.616;2022-09-13T05:54:04;3.57;;;2.57;;
56770;SDS011;42641;59.794;17.616;2022-09-13T05:56:31;3.57;;;2.70;;
56770;SDS011;42641;59.794;17.616;2022-09-13T05:58:57;13.20;;;3.27;;
56770;SDS011;42641;59.794;17.616;2022-09-13T06:01:25;7.90;;;2.90;;
56770;SDS011;42641;59.794;17.616;2022-09-13T06:03:54;3.77;;;2.73;;
56770;SDS011;42641;59.794;17.616;2022-09-13T06:06:22;3.47;;;3.03;;
56770;SDS011;42641;59.794;17.616;2022-09-13T06:08:52;2.97;;;2.67;;
56770;SDS011;42641;59.794;17.616;2022-09-13T06:11:20;3.30;;;2.53;;
56770;SDS011;42641;59.794;17.616;2022-09-13T06:13:48;5.07;;;2.90;;
56770;SDS011;42641;59.794;17.616;2022-09-13T06:16:15;3.03;;;2.73;;
56770;SDS011;42641;59.794;17.616;2022-09-13T06:18:42;3.17;;;2.83;;
56770;SDS011;42641;59.794;17.616;2022-09-13T06:21:10;4.23;;;2.80;;
56770;SDS011;42641;59.794;17.616;2022-09-13T06:23:49;4.17;;;2.60;;
56770;SDS011;42641;59.794;17.616;2022-09-13T06:26:17;6.03;;;3.00;;
56770;SDS011;42641;59.794;17.616;2022-09-13T06:28:49;4.00;;;2.67;;
56770;SDS011;42641;59.794;17.616;2022-09-13T06:31:18;2.97;;;2.70;;
56770;SDS011;42641;59.794;17.616;2022-09-13T06:33:46;3.67;;;2.80;;
56770;SDS011;42641;59.794;17.616;2022-09-13T06:36:15;7.20;;;3.13;;
56770;SDS011;42641;59.794;17.616;2022-09-13T06:38:43;3.90;;;2.60;;
56770;SDS011;42641;59.794;17.616;2022-09-13T06:41:11;6.93;;;3.07;;
56770;SDS011;42641;59.794;17.616;2022-09-13T06:43:43;3.63;;;2.80;;
56770;SDS011;42641;59.794;17.616;2022-09-13T06:46:11;3.40;;;2.50;;
56770;SDS011;42641;59.794;17.616;2022-09-13T06:48:39;4.38;;;2.70;;
56770;SDS011;42641;59.794;17.616;2022-09-13T06:51:11;4.20;;;2.53;;
56770;SDS011;42641;59.794;17.616;2022-09-13T06:53:40;4.77;;;2.73;;
56770;SDS011;42641;59.794;17.616;2022-09-13T06:56:09;4.93;;;2.97;;
56770;SDS011;42641;59.794;17.616;2022-09-13T06:58:38;23.80;;;3.67;;
56770;SDS011;42641;59.794;17.616;2022-09-13T07:01:15;6.97;;;2.80;;
56770;SDS011;42641;59.794;17.616;2022-09-13T07:03:50;4.47;;;3.00;;
56770;SDS011;42641;59.794;17.616;2022-09-13T07:06:20;3.42;;;2.72;;
56770;SDS011;42641;59.794;17.616;2022-09-13T07:08:48;4.83;;;3.03;;
56770;SDS011;42641;59.794;17.616;2022-09-13T07:11:16;3.90;;;3.10;;
56770;SDS011;42641;59.794;17.616;2022-09-13T07:13:47;5.20;;;3.40;;
56770;SDS011;42641;59.794;17.616;2022-09-13T07:16:17;5.67;;;3.40;;
56770;SDS011;42641;59.794;17.616;2022-09-13T07:18:49;5.03;;;3.70;;
56770;SDS011;42641;59.794;17.616;2022-09-13T07:21:40;4.47;;;3.30;;
56770;SDS011;42641;59.794;17.616;2022-09-13T07:24:07;5.23;;;3.47;;
56770;SDS011;42641;59.794;17.616;2022-09-13T07:26:34;5.77;;;3.77;;
56770;SDS011;42641;59.794;17.616;2022-09-13T07:29:01;10.13;;;4.43;;
56770;SDS011;42641;59.794;17.616;2022-09-13T07:31:33;6.30;;;3.70;;
56770;SDS011;42641;59.794;17.616;2022-09-13T07:34:02;8.00;;;3.60;;
56770;SDS011;42641;59.794;17.616;2022-09-13T07:36:35;8.47;;;4.23;;
56770;SDS011;42641;59.794;17.616;2022-09-13T07:39:02;10.77;;;4.17;;
56770;SDS011;42641;59.794;17.616;2022-09-13T07:41:30;7.63;;;3.40;;
56770;SDS011;42641;59.794;17.616;2022-09-13T07:43:58;9.53;;;2.93;;
56770;SDS011;42641;59.794;17.616;2022-09-13T07:46:30;5.90;;;2.50;;
56770;SDS011;42641;59.794;17.616;2022-09-13T07:48:58;4.73;;;2.30;;
56770;SDS011;42641;59.794;17.616;2022-09-13T07:51:30;2.73;;;2.20;;
56770;SDS011;42641;59.794;17.616;2022-09-13T07:53:58;4.53;;;2.67;;
56770;SDS011;42641;59.794;17.616;2022-09-13T07:56:27;5.57;;;3.00;;
56770;SDS011;42641;59.794;17.616;2022-09-13T07:58:57;6.13;;;2.13;;
56770;SDS011;42641;59.794;17.616;2022-09-13T08:01:26;4.23;;;2.37;;
56770;SDS011;42641;59.794;17.616;2022-09-13T08:04:00;3.30;;;2.27;;
56770;SDS011;42641;59.794;17.616;2022-09-13T08:06:29;3.60;;;2.60;;
56770;SDS011;42641;59.794;17.616;2022-09-13T08:08:56;4.23;;;2.70;;
56770;SDS011;42641;59.794;17.616;2022-09-13T08:11:24;4.00;;;3.03;;
56770;SDS011;42641;59.794;17.616;2022-09-13T08:13:53;5.07;;;2.90;;
56770;SDS011;42641;59.794;17.616;2022-09-13T08:16:20;4.80;;;3.37;;
56770;SDS011;42641;59.794;17.616;2022-09-13T08:18:49;5.57;;;2.87;;
56770;SDS011;42641;59.794;17.616;2022-09-13T08:21:17;3.33;;;2.53;;
56770;SDS011;42641;59.794;17.616;2022-09-13T08:23:44;3.57;;;2.60;;
56770;SDS011;42641;59.794;17.616;2022-09-13T08:26:10;3.97;;;2.37;;
56770;SDS011;42641;59.794;17.616;2022-09-13T08:28:37;3.50;;;2.07;;
56770;SDS011;42641;59.794;17.616;2022-09-13T08:31:05;5.87;;;2.10;;
56770;SDS011;42641;59.794;17.616;2022-09-13T08:33:34;2.13;;;1.90;;
56770;SDS011;42641;59.794;17.616;2022-09-13T08:36:02;3.70;;;2.07;;
56770;SDS011;42641;59.794;17.616;2022-09-13T08:38:30;4.07;;;2.37;;
56770;SDS011;42641;59.794;17.616;2022-09-13T08:40:58;2.13;;;1.87;;
56770;SDS011;42641;59.794;17.616;2022-09-13T08:43:31;3.43;;;2.17;;
56770;SDS011;42641;59.794;17.616;2022-09-13T08:46:14;4.63;;;1.90;;
56770;SDS011;42641;59.794;17.616;2022-09-13T08:48:43;3.03;;;2.23;;
56770;SDS011;42641;59.794;17.616;2022-09-13T08:51:57;1.60;;;1.50;;
56770;SDS011;42641;59.794;17.616;2022-09-13T08:54:10;2.57;;;2.17;;
56770;SDS011;42641;59.794;17.616;2022-09-13T08:56:40;3.00;;;1.90;;
56770;SDS011;42641;59.794;17.616;2022-09-13T09:07:25;2.60;;;2.03;;
56770;SDS011;42641;59.794;17.616;2022-09-13T09:10:15;3.67;;;2.20;;
56770;SDS011;42641;59.794;17.616;2022-09-13T09:12:45;2.17;;;1.77;;
56770;SDS011;42641;59.794;17.616;2022-09-13T09:15:19;3.07;;;2.50;;
56770;SDS011;42641;59.794;17.616;2022-09-13T09:17:50;2.80;;;2.20;;
56770;SDS011;42641;59.794;17.616;2022-09-13T09:22:53;3.10;;;2.00;;
56770;SDS011;42641;59.794;17.616;2022-09-13T09:25:21;3.50;;;2.17;;
56770;SDS011;42641;59.794;17.616;2022-09-13T09:27:50;3.07;;;2.53;;
56770;SDS011;42641;59.794;17.616;2022-09-13T09:30:18;3.13;;;2.30;;
56770;SDS011;42641;59.794;17.616;2022-09-13T09:35:20;4.30;;;2.30;;
56770;SDS011;42641;59.794;17.616;2022-09-13T09:40:58;3.07;;;2.40;;
56770;SDS011;42641;59.794;17.616;2022-09-13T09:43:31;2.73;;;2.10;;
56770;SDS011;42641;59.794;17.616;2022-09-13T09:46:09;2.57;;;1.90;;
56770;SDS011;42641;59.794;17.616;2022-09-13T09:48:43;2.60;;;1.97;;
56770;SDS011;42641;59.794;17.616;2022-09-13T09:51:19;3.53;;;1.90;;
56770;SDS011;42641;59.794;17.616;2022-09-13T09:53:52;2.57;;;1.80;;
56770;SDS011;42641;59.794;17.616;2022-09-13T09:56:31;3.03;;;2.10;;
56770;SDS011;42641;59.794;17.616;2022-09-13T09:58:58;3.63;;;2.23;;
56770;SDS011;42641;59.794;17.616;2022-09-13T10:01:26;4.53;;;2.10;;
56770;SDS011;42641;59.794;17.616;2022-09-13T10:04:05;3.60;;;2.00;;
56770;SDS011;42641;59.794;17.616;2022-09-13T10:06:36;4.80;;;2.10;;
56770;SDS011;42641;59.794;17.616;2022-09-13T10:09:04;3.90;;;2.03;;
56770;SDS011;42641;59.794;17.616;2022-09-13T10:11:47;4.77;;;1.77;;
56770;SDS011;42641;59.794;17.616;2022-09-13T10:19:50;3.90;;;1.70;;
56770;SDS011;42641;59.794;17.616;2022-09-13T10:22:30;1.93;;;1.83;;
56770;SDS011;42641;59.794;17.616;2022-09-13T10:25:14;3.83;;;1.90;;
56770;SDS011;42641;59.794;17.616;2022-09-13T10:27:41;2.07;;;1.83;;
56770;SDS011;42641;59.794;17.616;2022-09-13T10:30:29;2.93;;;1.70;;
56770;SDS011;42641;59.794;17.616;2022-09-13T10:33:13;4.47;;;2.00;;
56770;SDS011;42641;59.794;17.616;2022-09-13T10:35:52;3.67;;;1.90;;
56770;SDS011;42641;59.794;17.616;2022-09-13T10:38:25;3.93;;;1.90;;
56770;SDS011;42641;59.794;17.616;2022-09-13T10:40:57;2.50;;;1.83;;
56770;SDS011;42641;59.794;17.616;2022-09-13T10:43:28;3.50;;;2.00;;
56770;SDS011;42641;59.794;17.616;2022-09-13T10:45:55;5.10;;;1.97;;
56770;SDS011;42641;59.794;17.616;2022-09-13T10:48:23;2.00;;;1.80;;
56770;SDS011;42641;59.794;17.616;2022-09-13T10:51:50;4.80;;;1.90;;
56770;SDS011;42641;59.794;17.616;2022-09-13T10:53:47;3.37;;;1.97;;
56770;SDS011;42641;59.794;17.616;2022-09-13T10:56:20;2.73;;;1.80;;
56770;SDS011;42641;59.794;17.616;2022-09-13T10:58:50;4.30;;;1.90;;
56770;SDS011;42641;59.794;17.616;2022-09-13T11:01:43;4.13;;;2.13;;
56770;SDS011;42641;59.794;17.616;2022-09-13T11:07:02;3.97;;;2.07;;
56770;SDS011;42641;59.794;17.616;2022-09-13T11:12:30;3.07;;;1.80;;
56770;SDS011;42641;59.794;17.616;2022-09-13T11:18:17;4.13;;;1.90;;
56770;SDS011;42641;59.794;17.616;2022-09-13T11:29:45;3.73;;;2.10;;
56770;SDS011;42641;59.794;17.616;2022-09-13T11:54:17;3.93;;;2.50;;
56770;SDS011;42641;59.794;17.616;2022-09-13T11:57:09;8.77;;;2.83;;
56770;SDS011;42641;59.794;17.616;2022-09-13T12:02:17;7.07;;;3.30;;
56770;SDS011;42641;59.794;17.616;2022-09-13T12:05:40;5.67;;;2.80;;
56770;SDS011;42641;59.794;17.616;2022-09-13T12:07:55;4.60;;;3.10;;
56770;SDS011;42641;59.794;17.616;2022-09-13T12:10:38;4.67;;;2.57;;
56770;SDS011;42641;59.794;17.616;2022-09-13T12:13:24;3.77;;;2.30;;
56770;SDS011;42641;59.794;17.616;2022-09-13T12:16:15;3.43;;;2.30;;
56770;SDS011;42641;59.794;17.616;2022-09-13T12:18:53;4.57;;;2.63;;
56770;SDS011;42641;59.794;17.616;2022-09-13T12:21:45;3.97;;;2.73;;
56770;SDS011;42641;59.794;17.616;2022-09-13T12:32:15;3.27;;;2.23;;
56770;SDS011;42641;59.794;17.616;2022-09-13T12:34:45;3.87;;;2.53;;
56770;SDS011;42641;59.794;17.616;2022-09-13T12:46:31;2.67;;;2.30;;
56770;SDS011;42641;59.794;17.616;2022-09-13T12:49:31;3.50;;;2.30;;
56770;SDS011;42641;59.794;17.616;2022-09-13T13:08:04;4.87;;;3.30;;
56770;SDS011;42641;59.794;17.616;2022-09-13T13:10:41;3.77;;;3.10;;
56770;SDS011;42641;59.794;17.616;2022-09-13T13:13:12;3.70;;;3.10;;
56770;SDS011;42641;59.794;17.616;2022-09-13T13:33:45;5.87;;;2.30;;
56770;SDS011;42641;59.794;17.616;2022-09-13T13:36:20;6.30;;;1.90;;
56770;SDS011;42641;59.794;17.616;2022-09-13T13:38:52;2.37;;;1.63;;
56770;SDS011;42641;59.794;17.616;2022-09-13T13:43:59;2.47;;;1.43;;
56770;SDS011;42641;59.794;17.616;2022-09-13T13:46:30;1.60;;;1.23;;
56770;SDS011;42641;59.794;17.616;2022-09-13T14:00:04;2.60;;;1.60;;
56770;SDS011;42641;59.794;17.616;2022-09-13T14:02:51;4.20;;;1.67;;
56770;SDS011;42641;59.794;17.616;2022-09-13T14:05:27;4.47;;;1.60;;
56770;SDS011;42641;59.794;17.616;2022-09-13T14:19:28;3.20;;;1.80;;
56770;SDS011;42641;59.794;17.616;2022-09-13T14:22:13;3.90;;;1.60;;
56770;SDS011;42641;59.794;17.616;2022-09-13T14:24:46;2.93;;;2.50;;
56770;SDS011;42641;59.794;17.616;2022-09-13T14:27:21;3.27;;;2.10;;
56770;SDS011;42641;59.794;17.616;2022-09-13T14:29:52;2.60;;;1.80;;
56770;SDS011;42641;59.794;17.616;2022-09-13T14:32:24;2.90;;;1.93;;
56770;SDS011;42641;59.794;17.616;2022-09-13T14:35:00;2.40;;;1.73;;
56770;SDS011;42641;59.794;17.616;2022-09-13T14:37:31;2.50;;;1.60;;
56770;SDS011;42641;59.794;17.616;2022-09-13T14:40:14;1.47;;;1.33;;
56770;SDS011;42641;59.794;17.616;2022-09-13T14:42:44;1.90;;;1.50;;
56770;SDS011;42641;59.794;17.616;2022-09-13T14:45:13;2.63;;;1.50;;
56770;SDS011;42641;59.794;17.616;2022-09-13T14:50:35;2.03;;;1.40;;
56770;SDS011;42641;59.794;17.616;2022-09-13T14:53:25;1.30;;;1.20;;
56770;SDS011;42641;59.794;17.616;2022-09-13T14:55:55;2.50;;;1.43;;
56770;SDS011;42641;59.794;17.616;2022-09-13T14:58:28;2.67;;;1.43;;
56770;SDS011;42641;59.794;17.616;2022-09-13T15:01:10;1.83;;;1.53;;
56770;SDS011;42641;59.794;17.616;2022-09-13T15:03:42;1.53;;;1.43;;
56770;SDS011;42641;59.794;17.616;2022-09-13T15:06:33;2.03;;;1.30;;
56770;SDS011;42641;59.794;17.616;2022-09-13T15:16:47;2.37;;;1.43;;
56770;SDS011;42641;59.794;17.616;2022-09-13T15:19:28;1.80;;;1.70;;
56770;SDS011;42641;59.794;17.616;2022-09-13T15:22:01;5.07;;;1.90;;
56770;SDS011;42641;59.794;17.616;2022-09-13T15:24:30;1.93;;;1.53;;
56770;SDS011;42641;59.794;17.616;2022-09-13T15:27:05;3.53;;;1.80;;
56770;SDS011;42641;59.794;17.616;2022-09-13T15:29:46;1.70;;;1.60;;
56770;SDS011;42641;59.794;17.616;2022-09-13T15:32:23;4.97;;;2.10;;
56770;SDS011;42641;59.794;17.616;2022-09-13T15:35:25;2.97;;;1.93;;
56770;SDS011;42641;59.794;17.616;2022-09-13T15:37:58;3.67;;;1.90;;
56770;SDS011;42641;59.794;17.616;2022-09-13T15:40:27;3.23;;;2.00;;
56770;SDS011;42641;59.794;17.616;2022-09-13T15:42:54;2.70;;;1.70;;
56770;SDS011;42641;59.794;17.616;2022-09-13T15:45:21;2.40;;;1.73;;
56770;SDS011;42641;59.794;17.616;2022-09-13T15:47:49;3.97;;;1.83;;
56770;SDS011;42641;59.794;17.616;2022-09-13T15:50:24;6.00;;;2.40;;
56770;SDS011;42641;59.794;17.616;2022-09-13T15:52:57;2.73;;;2.10;;
56770;SDS011;42641;59.794;17.616;2022-09-13T15:55:24;2.60;;;2.27;;
56770;SDS011;42641;59.794;17.616;2022-09-13T15:57:52;3.73;;;1.80;;
56770;SDS011;42641;59.794;17.616;2022-09-13T16:00:20;2.80;;;1.80;;
56770;SDS011;42641;59.794;17.616;2022-09-13T16:02:49;2.10;;;1.90;;
56770;SDS011;42641;59.794;17.616;2022-09-13T16:05:16;2.67;;;2.03;;
56770;SDS011;42641;59.794;17.616;2022-09-13T16:07:43;4.17;;;2.03;;
56770;SDS011;42641;59.794;17.616;2022-09-13T16:10:11;3.00;;;2.07;;
56770;SDS011;42641;59.794;17.616;2022-09-13T16:12:40;4.17;;;2.20;;
56770;SDS011;42641;59.794;17.616;2022-09-13T16:15:06;3.80;;;2.00;;
56770;SDS011;42641;59.794;17.616;2022-09-13T16:17:33;3.60;;;1.70;;
56770;SDS011;42641;59.794;17.616;2022-09-13T16:20:00;2.30;;;2.00;;
56770;SDS011;42641;59.794;17.616;2022-09-13T16:22:26;2.77;;;1.87;;
56770;SDS011;42641;59.794;17.616;2022-09-13T16:24:53;2.10;;;1.50;;
56770;SDS011;42641;59.794;17.616;2022-09-13T16:27:19;1.80;;;1.70;;
56770;SDS011;42641;59.794;17.616;2022-09-13T16:29:45;4.13;;;1.77;;
56770;SDS011;42641;59.794;17.616;2022-09-13T16:32:12;2.07;;;1.90;;
56770;SDS011;42641;59.794;17.616;2022-09-13T16:34:38;2.47;;;1.93;;
56770;SDS011;42641;59.794;17.616;2022-09-13T16:37:05;2.00;;;1.80;;
56770;SDS011;42641;59.794;17.616;2022-09-13T16:39:31;3.20;;;1.70;;
56770;SDS011;42641;59.794;17.616;2022-09-13T16:41:57;1.90;;;1.80;;
56770;SDS011;42641;59.794;17.616;2022-09-13T16:44:24;1.80;;;1.70;;
56770;SDS011;42641;59.794;17.616;2022-09-13T16:46:50;2.53;;;1.90;;
56770;SDS011;42641;59.794;17.616;2022-09-13T16:49:16;2.77;;;1.87;;
56770;SDS011;42641;59.794;17.616;2022-09-13T16:51:43;2.70;;;1.83;;
56770;SDS011;42641;59.794;17.616;2022-09-13T16:54:09;3.17;;;2.07;;
56770;SDS011;42641;59.794;17.616;2022-09-13T16:56:35;2.63;;;1.70;;
56770;SDS011;42641;59.794;17.616;2022-09-13T16:59:02;2.13;;;1.90;;
56770;SDS011;42641;59.794;17.616;2022-09-13T17:01:28;2.80;;;2.03;;
56770;SDS011;42641;59.794;17.616;2022-09-13T17:03:55;4.37;;;1.97;;
56770;SDS011;42641;59.794;17.616;2022-09-13T17:06:23;3.20;;;1.97;;
56770;SDS011;42641;59.794;17.616;2022-09-13T17:08:52;3.27;;;1.80;;
56770;SDS011;42641;59.794;17.616;2022-09-13T17:11:21;3.20;;;1.70;;
56770;SDS011;42641;59.794;17.616;2022-09-13T17:13:49;2.80;;;1.70;;
56770;SDS011;42641;59.794;17.616;2022-09-13T17:16:34;4.50;;;2.10;;
56770;SDS011;42641;59.794;17.616;2022-09-13T17:19:07;2.93;;;1.80;;
56770;SDS011;42641;59.794;17.616;2022-09-13T17:21:38;2.00;;;1.50;;
56770;SDS011;42641;59.794;17.616;2022-09-13T17:24:05;3.60;;;1.80;;
56770;SDS011;42641;59.794;17.616;2022-09-13T17:26:31;3.27;;;1.70;;
56770;SDS011;42641;59.794;17.616;2022-09-13T17:28:58;2.27;;;1.80;;
56770;SDS011;42641;59.794;17.616;2022-09-13T17:31:24;3.40;;;1.77;;
56770;SDS011;42641;59.794;17.616;2022-09-13T17:33:50;3.60;;;1.90;;
56770;SDS011;42641;59.794;17.616;2022-09-13T17:36:18;2.43;;;1.90;;
56770;SDS011;42641;59.794;17.616;2022-09-13T17:38:45;2.53;;;1.70;;
56770;SDS011;42641;59.794;17.616;2022-09-13T17:41:13;2.30;;;1.77;;
56770;SDS011;42641;59.794;17.616;2022-09-13T17:43:41;1.93;;;1.73;;
56770;SDS011;42641;59.794;17.616;2022-09-13T17:46:15;3.60;;;1.83;;
56770;SDS011;42641;59.794;17.616;2022-09-13T17:48:47;4.13;;;2.13;;
56770;SDS011;42641;59.794;17.616;2022-09-13T17:51:16;3.43;;;2.03;;
56770;SDS011;42641;59.794;17.616;2022-09-13T17:53:48;3.53;;;2.00;;
56770;SDS011;42641;59.794;17.616;2022-09-13T17:56:19;3.10;;;1.80;;
56770;SDS011;42641;59.794;17.616;2022-09-13T17:59:16;2.60;;;1.83;;
56770;SDS011;42641;59.794;17.616;2022-09-13T18:01:45;2.17;;;1.60;;
56770;SDS011;42641;59.794;17.616;2022-09-13T18:04:14;4.17;;;2.37;;
56770;SDS011;42641;59.794;17.616;2022-09-13T18:06:42;2.10;;;1.70;;
56770;SDS011;42641;59.794;17.616;2022-09-13T18:09:09;5.40;;;2.07;;
56770;SDS011;42641;59.794;17.616;2022-09-13T18:11:37;2.10;;;1.90;;
56770;SDS011;42641;59.794;17.616;2022-09-13T18:14:03;2.67;;;1.80;;
56770;SDS011;42641;59.794;17.616;2022-09-13T18:16:30;3.83;;;1.80;;
56770;SDS011;42641;59.794;17.616;2022-09-13T18:18:58;14.03;;;2.63;;